首页
METAR-TAF:

METAR-TAF

机场 :

托尔马切沃机场

新西伯利亚, 俄罗斯

纬度: 55-01N, 经度: 082-38E, 海拔: 111米

当前天气观测

该预报发布于39分钟前的22:30 UTC
风速6节,风向南转南东,有时为16节阵风
温度 7°C
湿度 87%
气压 1000 hPa
能见度10公里或以上
阴天层高于4300英尺, 积雨云.
小阵雨

METAR: UNNT 202230Z 16003G08MPS 9999 -SHRA OVC043CB 07/05 Q1000 R07/290255 R16/090070 NOSIG RMK QFE740/0987

时间: 06:09 (23:09 UTC)

预报

该预报发布于3小时和9分钟前的20:00 UTC
预报有效从20日的 21点(UTC)到 21日的 21点(UTC)
风速6节,风向,有时为16节阵风
能见度10公里或以上
多云层高于4000英尺, 积雨云.
短暂存在
从 20日的 21点(UTC)到 20日的 23点(UTC)
能見度: 3100
散云层高于500英尺
多云层高于1600英尺, 积雨云.
雷暴, 小雨
成为
从 20日的 23点(UTC)到 21日的 01点(UTC)
风速16节,风向西,有时为29节阵风

TAF: UNNT 202000Z 2021/2121 18003G08MPS 9999 BKN040CB TEMPO 2021/2023 3100 -TSRA SCT005 BKN016CB BECMG 2023/2101 26008G15MPS

超过4000个机场的气象观测和天气预报(METAR&TAF报告)。

可查询的气象台以黄色和红色小点在地图上表示。

将鼠标移到小点上方,可查看气象台名称。

然后点击查看天气观测和预报。

如需切换地图:点击带黑十字的绿色按钮放大地图;点击带横线的绿色按钮缩小地图;或者点击绿色箭头查看邻近地区的地图。


METAR-TAF: